sensor_id;sensor_type;location;lat;lon;timestamp;temperature;humidity
2190;DHT22;1101;51.056;7.262;2023-02-16T00:01:35;2.70;99.90
2190;DHT22;1101;51.056;7.262;2023-02-16T00:04:12;2.70;99.90
2190;DHT22;1101;51.056;7.262;2023-02-16T00:06:42;2.70;99.90
2190;DHT22;1101;51.056;7.262;2023-02-16T00:09:09;2.70;99.90
2190;DHT22;1101;51.056;7.262;2023-02-16T00:11:37;2.60;99.90
2190;DHT22;1101;51.056;7.262;2023-02-16T00:14:24;2.60;99.90
2190;DHT22;1101;51.056;7.262;2023-02-16T00:16:54;2.60;99.90
2190;DHT22;1101;51.056;7.262;2023-02-16T00:19:25;2.60;99.90
2190;DHT22;1101;51.056;7.262;2023-02-16T00:21:54;2.50;99.90
2190;DHT22;1101;51.056;7.262;2023-02-16T00:24:23;2.60;99.90
2190;DHT22;1101;51.056;7.262;2023-02-16T00:26:52;2.50;99.90
2190;DHT22;1101;51.056;7.262;2023-02-16T00:29:24;2.50;99.90
2190;DHT22;1101;51.056;7.262;2023-02-16T00:31:54;2.50;99.90
2190;DHT22;1101;51.056;7.262;2023-02-16T00:34:28;2.40;99.90
2190;DHT22;1101;51.056;7.262;2023-02-16T00:36:58;2.40;99.90
2190;DHT22;1101;51.056;7.262;2023-02-16T00:39:26;2.40;99.90
2190;DHT22;1101;51.056;7.262;2023-02-16T00:41:55;2.40;99.90
2190;DHT22;1101;51.056;7.262;2023-02-16T00:44:31;2.30;99.80
2190;DHT22;1101;51.056;7.262;2023-02-16T00:47:09;2.30;99.80
2190;DHT22;1101;51.056;7.262;2023-02-16T00:49:42;2.30;99.80
2190;DHT22;1101;51.056;7.262;2023-02-16T00:52:34;2.30;99.80
2190;DHT22;1101;51.056;7.262;2023-02-16T00:55:05;2.20;99.80
2190;DHT22;1101;51.056;7.262;2023-02-16T00:57:37;2.20;99.80
2190;DHT22;1101;51.056;7.262;2023-02-16T01:00:12;2.10;99.80
2190;DHT22;1101;51.056;7.262;2023-02-16T01:02:42;2.10;99.80
2190;DHT22;1101;51.056;7.262;2023-02-16T01:05:12;2.10;99.80
2190;DHT22;1101;51.056;7.262;2023-02-16T01:07:40;2.10;99.80
2190;DHT22;1101;51.056;7.262;2023-02-16T01:10:26;2.10;99.90
2190;DHT22;1101;51.056;7.262;2023-02-16T01:13:12;2.00;99.90
2190;DHT22;1101;51.056;7.262;2023-02-16T01:15:41;2.00;99.90
2190;DHT22;1101;51.056;7.262;2023-02-16T01:18:12;2.00;99.90
2190;DHT22;1101;51.056;7.262;2023-02-16T01:20:40;1.90;99.80
2190;DHT22;1101;51.056;7.262;2023-02-16T01:23:08;1.90;99.90
2190;DHT22;1101;51.056;7.262;2023-02-16T01:25:37;1.90;99.90
2190;DHT22;1101;51.056;7.262;2023-02-16T01:28:16;1.80;99.90
2190;DHT22;1101;51.056;7.262;2023-02-16T01:30:44;1.80;99.90
2190;DHT22;1101;51.056;7.262;2023-02-16T01:33:14;1.80;99.90
2190;DHT22;1101;51.056;7.262;2023-02-16T01:35:42;1.70;99.90
2190;DHT22;1101;51.056;7.262;2023-02-16T01:38:16;1.70;99.90
2190;DHT22;1101;51.056;7.262;2023-02-16T01:40:50;1.70;99.90
2190;DHT22;1101;51.056;7.262;2023-02-16T01:43:22;1.70;99.90
2190;DHT22;1101;51.056;7.262;2023-02-16T01:45:54;1.70;99.90
2190;DHT22;1101;51.056;7.262;2023-02-16T01:48:29;1.60;99.90
2190;DHT22;1101;51.056;7.262;2023-02-16T01:51:02;1.60;99.90
2190;DHT22;1101;51.056;7.262;2023-02-16T01:53:34;1.60;99.90
2190;DHT22;1101;51.056;7.262;2023-02-16T01:56:08;1.60;99.90
2190;DHT22;1101;51.056;7.262;2023-02-16T01:58:42;1.60;99.90
2190;DHT22;1101;51.056;7.262;2023-02-16T02:01:36;1.60;99.90
2190;DHT22;1101;51.056;7.262;2023-02-16T02:04:21;1.60;99.90
2190;DHT22;1101;51.056;7.262;2023-02-16T02:07:12;1.50;99.90
2190;DHT22;1101;51.056;7.262;2023-02-16T02:09:45;1.50;99.90
2190;DHT22;1101;51.056;7.262;2023-02-16T02:12:22;1.50;99.90
2190;DHT22;1101;51.056;7.262;2023-02-16T02:14:52;1.50;99.90
2190;DHT22;1101;51.056;7.262;2023-02-16T02:17:23;1.50;99.90
2190;DHT22;1101;51.056;7.262;2023-02-16T02:19:59;1.40;99.90
2190;DHT22;1101;51.056;7.262;2023-02-16T02:22:59;1.40;99.90
2190;DHT22;1101;51.056;7.262;2023-02-16T02:29:01;1.40;99.90
2190;DHT22;1101;51.056;7.262;2023-02-16T02:31:39;1.30;99.90
2190;DHT22;1101;51.056;7.262;2023-02-16T02:34:15;1.30;99.90
2190;DHT22;1101;51.056;7.262;2023-02-16T02:36:49;1.30;99.90
2190;DHT22;1101;51.056;7.262;2023-02-16T02:39:28;1.30;99.90
2190;DHT22;1101;51.056;7.262;2023-02-16T02:42:03;1.20;99.90
2190;DHT22;1101;51.056;7.262;2023-02-16T02:44:40;1.20;99.90
2190;DHT22;1101;51.056;7.262;2023-02-16T02:47:09;1.20;99.90
2190;DHT22;1101;51.056;7.262;2023-02-16T02:49:37;1.20;99.90
2190;DHT22;1101;51.056;7.262;2023-02-16T02:52:05;1.10;99.90
2190;DHT22;1101;51.056;7.262;2023-02-16T02:54:35;1.10;99.90
2190;DHT22;1101;51.056;7.262;2023-02-16T02:57:24;1.10;99.90
2190;DHT22;1101;51.056;7.262;2023-02-16T03:00:14;1.10;99.90
2190;DHT22;1101;51.056;7.262;2023-02-16T03:03:02;1.10;99.90
2190;DHT22;1101;51.056;7.262;2023-02-16T03:05:33;1.10;99.90
2190;DHT22;1101;51.056;7.262;2023-02-16T03:08:06;1.00;99.90
2190;DHT22;1101;51.056;7.262;2023-02-16T03:10:42;1.00;99.90
2190;DHT22;1101;51.056;7.262;2023-02-16T03:13:31;0.90;99.90
2190;DHT22;1101;51.056;7.262;2023-02-16T03:16:05;0.90;99.90
2190;DHT22;1101;51.056;7.262;2023-02-16T03:18:36;0.90;99.90
2190;DHT22;1101;51.056;7.262;2023-02-16T03:21:24;0.90;99.90
2190;DHT22;1101;51.056;7.262;2023-02-16T03:24:14;0.90;99.90
2190;DHT22;1101;51.056;7.262;2023-02-16T03:27:01;0.90;99.90
2190;DHT22;1101;51.056;7.262;2023-02-16T03:29:47;0.90;99.90
2190;DHT22;1101;51.056;7.262;2023-02-16T03:32:17;0.90;99.90
2190;DHT22;1101;51.056;7.262;2023-02-16T03:34:45;0.90;99.90
2190;DHT22;1101;51.056;7.262;2023-02-16T03:37:13;0.90;99.90
2190;DHT22;1101;51.056;7.262;2023-02-16T03:39:42;0.80;99.90
2190;DHT22;1101;51.056;7.262;2023-02-16T03:42:24;0.80;99.90
2190;DHT22;1101;51.056;7.262;2023-02-16T03:44:51;0.80;99.90
2190;DHT22;1101;51.056;7.262;2023-02-16T03:47:21;0.80;99.90
2190;DHT22;1101;51.056;7.262;2023-02-16T03:49:48;0.80;99.90
2190;DHT22;1101;51.056;7.262;2023-02-16T03:52:16;0.80;99.90
2190;DHT22;1101;51.056;7.262;2023-02-16T03:54:44;0.80;99.90
2190;DHT22;1101;51.056;7.262;2023-02-16T03:57:12;0.80;99.90
2190;DHT22;1101;51.056;7.262;2023-02-16T03:59:40;0.70;99.90
2190;DHT22;1101;51.056;7.262;2023-02-16T04:02:07;0.70;99.90
2190;DHT22;1101;51.056;7.262;2023-02-16T04:04:37;0.70;99.90
2190;DHT22;1101;51.056;7.262;2023-02-16T04:07:04;0.70;99.90
2190;DHT22;1101;51.056;7.262;2023-02-16T04:09:32;0.70;99.90
2190;DHT22;1101;51.056;7.262;2023-02-16T04:12:00;0.60;99.90
2190;DHT22;1101;51.056;7.262;2023-02-16T04:14:46;0.60;99.90
2190;DHT22;1101;51.056;7.262;2023-02-16T04:17:13;0.50;99.90
2190;DHT22;1101;51.056;7.262;2023-02-16T04:19:43;0.50;99.90
2190;DHT22;1101;51.056;7.262;2023-02-16T04:22:10;0.50;99.90
2190;DHT22;1101;51.056;7.262;2023-02-16T04:24:38;0.40;99.90
2190;DHT22;1101;51.056;7.262;2023-02-16T04:27:06;0.40;99.90
2190;DHT22;1101;51.056;7.262;2023-02-16T04:29:34;0.40;99.90
2190;DHT22;1101;51.056;7.262;2023-02-16T04:32:02;0.30;99.90
2190;DHT22;1101;51.056;7.262;2023-02-16T04:34:30;0.30;99.90
2190;DHT22;1101;51.056;7.262;2023-02-16T04:36:59;0.30;99.90
2190;DHT22;1101;51.056;7.262;2023-02-16T04:39:27;0.30;99.90
2190;DHT22;1101;51.056;7.262;2023-02-16T04:41:55;0.30;99.90
2190;DHT22;1101;51.056;7.262;2023-02-16T04:44:23;0.30;99.90
2190;DHT22;1101;51.056;7.262;2023-02-16T04:46:51;0.30;99.90
2190;DHT22;1101;51.056;7.262;2023-02-16T04:49:19;0.30;99.90
2190;DHT22;1101;51.056;7.262;2023-02-16T04:51:46;0.30;99.90
2190;DHT22;1101;51.056;7.262;2023-02-16T04:54:16;0.30;99.90
2190;DHT22;1101;51.056;7.262;2023-02-16T04:56:44;0.30;99.90
2190;DHT22;1101;51.056;7.262;2023-02-16T04:59:12;0.30;99.90
2190;DHT22;1101;51.056;7.262;2023-02-16T05:01:41;0.30;99.90
2190;DHT22;1101;51.056;7.262;2023-02-16T05:04:09;0.30;99.90
2190;DHT22;1101;51.056;7.262;2023-02-16T05:06:37;0.30;99.90
2190;DHT22;1101;51.056;7.262;2023-02-16T05:09:06;0.20;99.90
2190;DHT22;1101;51.056;7.262;2023-02-16T05:11:35;0.20;99.90
2190;DHT22;1101;51.056;7.262;2023-02-16T05:14:22;0.20;99.90
2190;DHT22;1101;51.056;7.262;2023-02-16T05:17:09;0.20;99.90
2190;DHT22;1101;51.056;7.262;2023-02-16T05:19:39;0.20;99.90
2190;DHT22;1101;51.056;7.262;2023-02-16T05:22:08;0.20;99.90
2190;DHT22;1101;51.056;7.262;2023-02-16T05:24:36;0.20;99.90
2190;DHT22;1101;51.056;7.262;2023-02-16T05:27:07;0.20;99.90
2190;DHT22;1101;51.056;7.262;2023-02-16T05:29:37;0.20;99.90
2190;DHT22;1101;51.056;7.262;2023-02-16T05:32:05;0.20;99.90
2190;DHT22;1101;51.056;7.262;2023-02-16T05:34:33;0.20;99.90
2190;DHT22;1101;51.056;7.262;2023-02-16T05:37:01;0.20;99.90
2190;DHT22;1101;51.056;7.262;2023-02-16T05:39:29;0.20;99.90
2190;DHT22;1101;51.056;7.262;2023-02-16T05:41:57;0.20;99.90
2190;DHT22;1101;51.056;7.262;2023-02-16T05:44:26;0.20;99.90
2190;DHT22;1101;51.056;7.262;2023-02-16T05:46:55;0.20;99.90
2190;DHT22;1101;51.056;7.262;2023-02-16T05:49:22;0.20;99.90
2190;DHT22;1101;51.056;7.262;2023-02-16T05:51:51;0.20;99.90
2190;DHT22;1101;51.056;7.262;2023-02-16T05:54:19;0.20;99.90
2190;DHT22;1101;51.056;7.262;2023-02-16T05:56:48;0.20;99.90
2190;DHT22;1101;51.056;7.262;2023-02-16T05:59:16;0.10;99.90
2190;DHT22;1101;51.056;7.262;2023-02-16T06:01:46;0.10;99.90
2190;DHT22;1101;51.056;7.262;2023-02-16T06:04:19;0.10;99.90
2190;DHT22;1101;51.056;7.262;2023-02-16T06:06:47;0.10;99.90
2190;DHT22;1101;51.056;7.262;2023-02-16T06:09:15;0.10;99.90
2190;DHT22;1101;51.056;7.262;2023-02-16T06:11:43;0.10;99.90
2190;DHT22;1101;51.056;7.262;2023-02-16T06:14:12;0.10;99.90
2190;DHT22;1101;51.056;7.262;2023-02-16T06:16:42;0.10;99.90
2190;DHT22;1101;51.056;7.262;2023-02-16T06:19:12;0.10;99.90
2190;DHT22;1101;51.056;7.262;2023-02-16T06:21:40;0.10;99.90
2190;DHT22;1101;51.056;7.262;2023-02-16T06:24:09;0.10;99.90
2190;DHT22;1101;51.056;7.262;2023-02-16T06:26:37;0.10;99.90
2190;DHT22;1101;51.056;7.262;2023-02-16T06:29:05;0.10;99.90
2190;DHT22;1101;51.056;7.262;2023-02-16T06:31:33;0.10;99.90
2190;DHT22;1101;51.056;7.262;2023-02-16T06:34:03;0.10;99.90
2190;DHT22;1101;51.056;7.262;2023-02-16T06:36:32;0.10;99.90
2190;DHT22;1101;51.056;7.262;2023-02-16T06:39:01;0.10;99.90
2190;DHT22;1101;51.056;7.262;2023-02-16T06:41:28;0.10;99.90
2190;DHT22;1101;51.056;7.262;2023-02-16T06:44:03;0.20;99.90
2190;DHT22;1101;51.056;7.262;2023-02-16T06:46:31;0.20;99.90
2190;DHT22;1101;51.056;7.262;2023-02-16T06:48:59;0.20;99.90
2190;DHT22;1101;51.056;7.262;2023-02-16T06:51:27;0.20;99.90
2190;DHT22;1101;51.056;7.262;2023-02-16T06:53:57;0.20;99.90
2190;DHT22;1101;51.056;7.262;2023-02-16T06:56:25;0.20;99.90
2190;DHT22;1101;51.056;7.262;2023-02-16T06:58:53;0.20;99.90
2190;DHT22;1101;51.056;7.262;2023-02-16T07:01:21;0.20;99.90
2190;DHT22;1101;51.056;7.262;2023-02-16T07:03:52;0.30;99.90
2190;DHT22;1101;51.056;7.262;2023-02-16T07:06:21;0.30;99.90
2190;DHT22;1101;51.056;7.262;2023-02-16T07:08:49;0.30;99.90
2190;DHT22;1101;51.056;7.262;2023-02-16T07:11:19;0.40;99.90
2190;DHT22;1101;51.056;7.262;2023-02-16T07:13:48;0.40;99.90
2190;DHT22;1101;51.056;7.262;2023-02-16T07:16:15;0.50;99.90
2190;DHT22;1101;51.056;7.262;2023-02-16T07:18:43;0.50;99.90
2190;DHT22;1101;51.056;7.262;2023-02-16T07:21:12;0.60;99.90
2190;DHT22;1101;51.056;7.262;2023-02-16T07:23:40;0.60;99.90
2190;DHT22;1101;51.056;7.262;2023-02-16T07:26:09;0.70;99.90
2190;DHT22;1101;51.056;7.262;2023-02-16T07:28:38;0.80;99.90
2190;DHT22;1101;51.056;7.262;2023-02-16T07:31:07;0.90;99.90
2190;DHT22;1101;51.056;7.262;2023-02-16T07:33:37;1.00;99.90
2190;DHT22;1101;51.056;7.262;2023-02-16T07:36:06;1.10;99.90
2190;DHT22;1101;51.056;7.262;2023-02-16T07:38:34;1.10;99.90
2190;DHT22;1101;51.056;7.262;2023-02-16T07:41:02;1.20;99.90
2190;DHT22;1101;51.056;7.262;2023-02-16T07:43:34;1.30;99.90
2190;DHT22;1101;51.056;7.262;2023-02-16T07:46:04;1.30;99.90
2190;DHT22;1101;51.056;7.262;2023-02-16T07:48:32;1.40;99.90
2190;DHT22;1101;51.056;7.262;2023-02-16T07:51:00;1.40;99.90
2190;DHT22;1101;51.056;7.262;2023-02-16T07:53:29;1.40;99.90
2190;DHT22;1101;51.056;7.262;2023-02-16T07:55:56;1.40;99.90
2190;DHT22;1101;51.056;7.262;2023-02-16T07:58:24;1.50;99.90
2190;DHT22;1101;51.056;7.262;2023-02-16T08:00:56;1.50;99.90
2190;DHT22;1101;51.056;7.262;2023-02-16T08:03:33;1.50;99.90
2190;DHT22;1101;51.056;7.262;2023-02-16T08:06:01;1.60;99.90
2190;DHT22;1101;51.056;7.262;2023-02-16T08:08:29;1.60;99.90
2190;DHT22;1101;51.056;7.262;2023-02-16T08:10:58;1.60;99.90
2190;DHT22;1101;51.056;7.262;2023-02-16T08:13:25;1.70;99.90
2190;DHT22;1101;51.056;7.262;2023-02-16T08:15:53;1.80;99.90
2190;DHT22;1101;51.056;7.262;2023-02-16T08:18:21;1.80;99.90
2190;DHT22;1101;51.056;7.262;2023-02-16T08:20:50;1.80;99.90
2190;DHT22;1101;51.056;7.262;2023-02-16T08:23:30;1.90;99.90
2190;DHT22;1101;51.056;7.262;2023-02-16T08:25:58;2.00;99.90
2190;DHT22;1101;51.056;7.262;2023-02-16T08:28:25;2.00;99.90
2190;DHT22;1101;51.056;7.262;2023-02-16T08:30:54;2.10;99.90
2190;DHT22;1101;51.056;7.262;2023-02-16T08:33:22;2.20;99.90
2190;DHT22;1101;51.056;7.262;2023-02-16T08:35:52;2.30;99.90
2190;DHT22;1101;51.056;7.262;2023-02-16T08:38:19;2.30;99.90
2190;DHT22;1101;51.056;7.262;2023-02-16T08:40:48;2.40;99.90
2190;DHT22;1101;51.056;7.262;2023-02-16T08:43:16;2.50;99.90
2190;DHT22;1101;51.056;7.262;2023-02-16T08:45:45;2.50;99.90
2190;DHT22;1101;51.056;7.262;2023-02-16T08:48:14;2.50;99.90
2190;DHT22;1101;51.056;7.262;2023-02-16T08:50:43;2.60;99.90
2190;DHT22;1101;51.056;7.262;2023-02-16T08:53:13;2.60;99.90
2190;DHT22;1101;51.056;7.262;2023-02-16T08:55:41;2.70;99.90
2190;DHT22;1101;51.056;7.262;2023-02-16T08:58:09;2.70;99.90
2190;DHT22;1101;51.056;7.262;2023-02-16T09:00:37;2.70;99.90
2190;DHT22;1101;51.056;7.262;2023-02-16T09:03:05;2.70;99.90
2190;DHT22;1101;51.056;7.262;2023-02-16T09:05:33;2.80;99.90
2190;DHT22;1101;51.056;7.262;2023-02-16T09:08:01;2.80;99.90
2190;DHT22;1101;51.056;7.262;2023-02-16T09:10:30;2.80;99.90
2190;DHT22;1101;51.056;7.262;2023-02-16T09:12:58;2.90;99.90
2190;DHT22;1101;51.056;7.262;2023-02-16T09:15:26;2.90;99.90
2190;DHT22;1101;51.056;7.262;2023-02-16T09:17:54;3.00;99.90
2190;DHT22;1101;51.056;7.262;2023-02-16T09:20:22;3.00;99.90
2190;DHT22;1101;51.056;7.262;2023-02-16T09:22:50;3.10;99.90
2190;DHT22;1101;51.056;7.262;2023-02-16T09:25:18;3.10;99.90
2190;DHT22;1101;51.056;7.262;2023-02-16T09:27:47;3.20;99.90
2190;DHT22;1101;51.056;7.262;2023-02-16T09:30:15;3.20;99.90
2190;DHT22;1101;51.056;7.262;2023-02-16T09:32:44;3.30;99.90
2190;DHT22;1101;51.056;7.262;2023-02-16T09:35:12;3.30;99.90
2190;DHT22;1101;51.056;7.262;2023-02-16T09:37:39;3.40;99.90
2190;DHT22;1101;51.056;7.262;2023-02-16T09:40:09;3.40;99.90
2190;DHT22;1101;51.056;7.262;2023-02-16T09:42:53;3.50;99.90
2190;DHT22;1101;51.056;7.262;2023-02-16T09:45:24;3.50;99.90
2190;DHT22;1101;51.056;7.262;2023-02-16T09:47:52;3.60;99.90
2190;DHT22;1101;51.056;7.262;2023-02-16T09:50:22;3.60;99.90
2190;DHT22;1101;51.056;7.262;2023-02-16T09:53:18;3.60;99.90
2190;DHT22;1101;51.056;7.262;2023-02-16T09:55:53;3.70;99.90
2190;DHT22;1101;51.056;7.262;2023-02-16T09:58:29;3.80;99.90
2190;DHT22;1101;51.056;7.262;2023-02-16T10:01:05;3.90;99.90
2190;DHT22;1101;51.056;7.262;2023-02-16T10:03:49;4.00;99.90
2190;DHT22;1101;51.056;7.262;2023-02-16T10:06:28;4.10;99.90
2190;DHT22;1101;51.056;7.262;2023-02-16T10:08:59;4.30;99.90
2190;DHT22;1101;51.056;7.262;2023-02-16T10:11:32;4.40;99.90
2190;DHT22;1101;51.056;7.262;2023-02-16T10:14:23;4.50;99.90
2190;DHT22;1101;51.056;7.262;2023-02-16T10:16:54;4.60;99.90
2190;DHT22;1101;51.056;7.262;2023-02-16T10:19:27;4.70;99.90
2190;DHT22;1101;51.056;7.262;2023-02-16T10:21:58;4.80;99.90
2190;DHT22;1101;51.056;7.262;2023-02-16T10:24:30;4.90;99.90
2190;DHT22;1101;51.056;7.262;2023-02-16T10:27:06;5.00;99.90
2190;DHT22;1101;51.056;7.262;2023-02-16T10:29:37;5.10;99.90
2190;DHT22;1101;51.056;7.262;2023-02-16T10:32:14;5.20;99.90
2190;DHT22;1101;51.056;7.262;2023-02-16T10:34:47;5.30;99.90
2190;DHT22;1101;51.056;7.262;2023-02-16T10:37:33;5.40;99.90
2190;DHT22;1101;51.056;7.262;2023-02-16T10:40:16;5.40;99.90
2190;DHT22;1101;51.056;7.262;2023-02-16T10:42:53;5.50;99.90
2190;DHT22;1101;51.056;7.262;2023-02-16T10:45:28;5.50;99.90
2190;DHT22;1101;51.056;7.262;2023-02-16T10:47:58;5.60;99.90
2190;DHT22;1101;51.056;7.262;2023-02-16T10:50:30;5.70;99.90
2190;DHT22;1101;51.056;7.262;2023-02-16T10:53:00;5.80;99.90
2190;DHT22;1101;51.056;7.262;2023-02-16T10:55:31;5.80;99.90
2190;DHT22;1101;51.056;7.262;2023-02-16T10:58:00;5.90;99.90
2190;DHT22;1101;51.056;7.262;2023-02-16T11:00:41;5.90;99.90
2190;DHT22;1101;51.056;7.262;2023-02-16T11:03:12;6.00;99.90
2190;DHT22;1101;51.056;7.262;2023-02-16T11:05:41;6.00;99.90
2190;DHT22;1101;51.056;7.262;2023-02-16T11:08:09;6.10;99.90
2190;DHT22;1101;51.056;7.262;2023-02-16T11:10:42;6.10;99.90
2190;DHT22;1101;51.056;7.262;2023-02-16T11:13:30;6.20;99.90
2190;DHT22;1101;51.056;7.262;2023-02-16T11:16:09;6.20;99.90
2190;DHT22;1101;51.056;7.262;2023-02-16T11:18:40;6.20;99.90
2190;DHT22;1101;51.056;7.262;2023-02-16T11:21:10;6.20;99.90
2190;DHT22;1101;51.056;7.262;2023-02-16T11:23:40;6.20;99.90
2190;DHT22;1101;51.056;7.262;2023-02-16T11:26:21;6.30;99.90
2190;DHT22;1101;51.056;7.262;2023-02-16T11:28:50;6.30;99.90
2190;DHT22;1101;51.056;7.262;2023-02-16T11:31:24;6.30;99.90
2190;DHT22;1101;51.056;7.262;2023-02-16T11:33:56;6.40;99.90
2190;DHT22;1101;51.056;7.262;2023-02-16T11:36:30;6.40;99.90
2190;DHT22;1101;51.056;7.262;2023-02-16T11:39:02;6.50;99.90
2190;DHT22;1101;51.056;7.262;2023-02-16T11:41:31;6.50;99.90
2190;DHT22;1101;51.056;7.262;2023-02-16T11:44:00;6.50;99.90
2190;DHT22;1101;51.056;7.262;2023-02-16T11:46:38;6.50;99.90
2190;DHT22;1101;51.056;7.262;2023-02-16T11:49:29;6.60;99.90
2190;DHT22;1101;51.056;7.262;2023-02-16T11:51:58;6.70;99.90
2190;DHT22;1101;51.056;7.262;2023-02-16T11:54:26;6.80;99.90
2190;DHT22;1101;51.056;7.262;2023-02-16T11:57:02;6.90;99.90
2190;DHT22;1101;51.056;7.262;2023-02-16T11:59:34;6.90;99.90
2190;DHT22;1101;51.056;7.262;2023-02-16T12:05:27;7.10;99.90
2190;DHT22;1101;51.056;7.262;2023-02-16T12:08:15;7.20;99.90
2190;DHT22;1101;51.056;7.262;2023-02-16T12:10:57;7.20;99.90
2190;DHT22;1101;51.056;7.262;2023-02-16T12:13:35;7.30;99.90
2190;DHT22;1101;51.056;7.262;2023-02-16T12:16:16;7.40;99.90
2190;DHT22;1101;51.056;7.262;2023-02-16T12:18:55;7.40;99.90
2190;DHT22;1101;51.056;7.262;2023-02-16T12:21:33;7.40;99.90
2190;DHT22;1101;51.056;7.262;2023-02-16T12:24:10;7.50;99.90
2190;DHT22;1101;51.056;7.262;2023-02-16T12:26:48;7.50;99.90
2190;DHT22;1101;51.056;7.262;2023-02-16T12:29:27;7.60;99.90
2190;DHT22;1101;51.056;7.262;2023-02-16T12:32:12;7.60;99.90
2190;DHT22;1101;51.056;7.262;2023-02-16T12:34:54;7.60;99.90
2190;DHT22;1101;51.056;7.262;2023-02-16T12:37:32;7.60;99.90
2190;DHT22;1101;51.056;7.262;2023-02-16T12:40:12;7.60;99.90
2190;DHT22;1101;51.056;7.262;2023-02-16T12:42:54;7.60;99.90
2190;DHT22;1101;51.056;7.262;2023-02-16T12:45:31;7.70;99.90
2190;DHT22;1101;51.056;7.262;2023-02-16T12:48:04;7.60;99.90
2190;DHT22;1101;51.056;7.262;2023-02-16T12:50:39;7.60;99.90
2190;DHT22;1101;51.056;7.262;2023-02-16T12:53:20;7.60;99.90
2190;DHT22;1101;51.056;7.262;2023-02-16T12:55:55;7.60;99.90
2190;DHT22;1101;51.056;7.262;2023-02-16T12:58:29;7.60;99.90
2190;DHT22;1101;51.056;7.262;2023-02-16T13:01:00;7.60;99.90
2190;DHT22;1101;51.056;7.262;2023-02-16T13:03:35;7.60;99.90
2190;DHT22;1101;51.056;7.262;2023-02-16T13:06:14;7.60;99.90
2190;DHT22;1101;51.056;7.262;2023-02-16T13:08:49;7.70;99.90
2190;DHT22;1101;51.056;7.262;2023-02-16T13:11:20;7.70;99.90
2190;DHT22;1101;51.056;7.262;2023-02-16T13:13:51;7.80;99.90
2190;DHT22;1101;51.056;7.262;2023-02-16T13:16:27;7.80;99.90
2190;DHT22;1101;51.056;7.262;2023-02-16T13:19:00;7.80;99.90
2190;DHT22;1101;51.056;7.262;2023-02-16T13:21:45;7.80;99.90
2190;DHT22;1101;51.056;7.262;2023-02-16T13:24:27;7.90;99.90
2190;DHT22;1101;51.056;7.262;2023-02-16T13:27:10;7.90;99.90
2190;DHT22;1101;51.056;7.262;2023-02-16T13:30:04;7.90;99.90
2190;DHT22;1101;51.056;7.262;2023-02-16T13:32:51;7.90;99.90
2190;DHT22;1101;51.056;7.262;2023-02-16T13:38:59;7.90;99.90
2190;DHT22;1101;51.056;7.262;2023-02-16T13:41:58;7.90;99.90
2190;DHT22;1101;51.056;7.262;2023-02-16T13:44:34;7.90;99.90
2190;DHT22;1101;51.056;7.262;2023-02-16T13:47:04;7.90;99.90
2190;DHT22;1101;51.056;7.262;2023-02-16T13:49:36;7.90;99.90
2190;DHT22;1101;51.056;7.262;2023-02-16T13:52:09;8.00;99.90
2190;DHT22;1101;51.056;7.262;2023-02-16T13:54:38;8.00;99.90
2190;DHT22;1101;51.056;7.262;2023-02-16T13:57:12;8.00;99.90
2190;DHT22;1101;51.056;7.262;2023-02-16T13:59:55;8.00;99.90
2190;DHT22;1101;51.056;7.262;2023-02-16T14:02:50;8.10;99.90
2190;DHT22;1101;51.056;7.262;2023-02-16T14:05:26;8.20;99.90
2190;DHT22;1101;51.056;7.262;2023-02-16T14:08:18;8.20;99.90
2190;DHT22;1101;51.056;7.262;2023-02-16T14:10:56;8.30;99.90
2190;DHT22;1101;51.056;7.262;2023-02-16T14:13:28;8.40;99.90
2190;DHT22;1101;51.056;7.262;2023-02-16T14:15:59;8.40;99.90
2190;DHT22;1101;51.056;7.262;2023-02-16T14:18:30;8.50;99.90
2190;DHT22;1101;51.056;7.262;2023-02-16T14:21:00;8.60;99.90
2190;DHT22;1101;51.056;7.262;2023-02-16T14:23:29;8.70;99.90
2190;DHT22;1101;51.056;7.262;2023-02-16T14:26:01;8.80;99.90
2190;DHT22;1101;51.056;7.262;2023-02-16T14:28:57;8.90;99.90
2190;DHT22;1101;51.056;7.262;2023-02-16T14:31:26;9.00;99.90
2190;DHT22;1101;51.056;7.262;2023-02-16T14:34:02;9.10;99.90
2190;DHT22;1101;51.056;7.262;2023-02-16T14:36:31;9.20;99.90
2190;DHT22;1101;51.056;7.262;2023-02-16T14:39:22;9.20;99.90
2190;DHT22;1101;51.056;7.262;2023-02-16T14:42:05;9.30;99.90
2190;DHT22;1101;51.056;7.262;2023-02-16T14:44:51;9.30;99.90
2190;DHT22;1101;51.056;7.262;2023-02-16T14:47:33;9.40;99.90
2190;DHT22;1101;51.056;7.262;2023-02-16T14:50:15;9.40;99.90
2190;DHT22;1101;51.056;7.262;2023-02-16T14:52:56;9.50;99.90
2190;DHT22;1101;51.056;7.262;2023-02-16T14:58:29;9.50;99.90
2190;DHT22;1101;51.056;7.262;2023-02-16T15:01:03;9.50;99.90
2190;DHT22;1101;51.056;7.262;2023-02-16T15:03:41;9.50;99.90
2190;DHT22;1101;51.056;7.262;2023-02-16T15:06:17;9.50;99.90
2190;DHT22;1101;51.056;7.262;2023-02-16T15:08:50;9.50;99.90
2190;DHT22;1101;51.056;7.262;2023-02-16T15:11:28;9.50;99.90
2190;DHT22;1101;51.056;7.262;2023-02-16T15:14:06;9.50;99.90
2190;DHT22;1101;51.056;7.262;2023-02-16T15:16:38;9.50;99.90
2190;DHT22;1101;51.056;7.262;2023-02-16T15:19:13;9.40;99.90
2190;DHT22;1101;51.056;7.262;2023-02-16T15:21:43;9.50;99.90
2190;DHT22;1101;51.056;7.262;2023-02-16T15:24:21;9.40;99.90
2190;DHT22;1101;51.056;7.262;2023-02-16T15:26:54;9.40;99.90
2190;DHT22;1101;51.056;7.262;2023-02-16T15:29:27;9.40;99.90
2190;DHT22;1101;51.056;7.262;2023-02-16T15:31:57;9.40;99.90
2190;DHT22;1101;51.056;7.262;2023-02-16T15:34:28;9.40;99.90
2190;DHT22;1101;51.056;7.262;2023-02-16T15:36:59;9.40;99.90
2190;DHT22;1101;51.056;7.262;2023-02-16T15:39:29;9.30;99.90
2190;DHT22;1101;51.056;7.262;2023-02-16T15:42:19;9.30;99.90
2190;DHT22;1101;51.056;7.262;2023-02-16T15:44:48;9.30;99.90
2190;DHT22;1101;51.056;7.262;2023-02-16T15:47:21;9.30;99.90
2190;DHT22;1101;51.056;7.262;2023-02-16T15:49:49;9.20;99.90
2190;DHT22;1101;51.056;7.262;2023-02-16T15:52:21;9.20;99.90
2190;DHT22;1101;51.056;7.262;2023-02-16T15:54:53;9.20;99.90
2190;DHT22;1101;51.056;7.262;2023-02-16T15:57:26;9.20;99.90
2190;DHT22;1101;51.056;7.262;2023-02-16T15:59:57;9.10;99.90
2190;DHT22;1101;51.056;7.262;2023-02-16T16:02:33;9.10;99.90
2190;DHT22;1101;51.056;7.262;2023-02-16T16:05:05;9.10;99.90
2190;DHT22;1101;51.056;7.262;2023-02-16T16:07:35;9.10;99.90
2190;DHT22;1101;51.056;7.262;2023-02-16T16:10:12;9.10;99.90
2190;DHT22;1101;51.056;7.262;2023-02-16T16:12:41;9.00;99.90
2190;DHT22;1101;51.056;7.262;2023-02-16T16:15:15;9.00;99.90
2190;DHT22;1101;51.056;7.262;2023-02-16T16:17:45;9.00;99.90
2190;DHT22;1101;51.056;7.262;2023-02-16T16:20:23;9.00;99.90
2190;DHT22;1101;51.056;7.262;2023-02-16T16:22:56;8.90;99.90
2190;DHT22;1101;51.056;7.262;2023-02-16T16:25:29;8.90;99.90
2190;DHT22;1101;51.056;7.262;2023-02-16T16:27:58;8.90;99.90
2190;DHT22;1101;51.056;7.262;2023-02-16T16:30:28;8.80;99.90
2190;DHT22;1101;51.056;7.262;2023-02-16T16:33:02;8.80;99.90
2190;DHT22;1101;51.056;7.262;2023-02-16T16:35:37;8.80;99.90
2190;DHT22;1101;51.056;7.262;2023-02-16T16:38:06;8.70;99.90
2190;DHT22;1101;51.056;7.262;2023-02-16T16:40:36;8.70;99.90
2190;DHT22;1101;51.056;7.262;2023-02-16T16:43:15;8.70;99.90
2190;DHT22;1101;51.056;7.262;2023-02-16T16:45:45;8.60;99.90
2190;DHT22;1101;51.056;7.262;2023-02-16T16:48:18;8.60;99.90
2190;DHT22;1101;51.056;7.262;2023-02-16T16:50:47;8.50;99.90
2190;DHT22;1101;51.056;7.262;2023-02-16T16:53:40;8.50;99.90
2190;DHT22;1101;51.056;7.262;2023-02-16T16:56:10;8.50;99.90
2190;DHT22;1101;51.056;7.262;2023-02-16T16:58:39;8.40;99.90
2190;DHT22;1101;51.056;7.262;2023-02-16T17:01:07;8.40;99.90
2190;DHT22;1101;51.056;7.262;2023-02-16T17:03:37;8.40;99.90
2190;DHT22;1101;51.056;7.262;2023-02-16T17:06:05;8.40;99.90
2190;DHT22;1101;51.056;7.262;2023-02-16T17:08:34;8.40;99.90